createdAt,value
2017-05-29T00:01:38.726Z,21.60
2017-05-29T00:04:07.795Z,21.60
2017-05-29T00:06:36.875Z,21.50
2017-05-29T00:09:05.946Z,21.50
2017-05-29T00:11:35.010Z,21.50
2017-05-29T00:14:04.081Z,21.40
2017-05-29T00:16:33.153Z,21.40
2017-05-29T00:19:02.218Z,21.40
2017-05-29T00:21:31.356Z,21.40
2017-05-29T00:24:00.418Z,21.40
2017-05-29T00:26:29.478Z,21.40
2017-05-29T00:28:58.566Z,21.30
2017-05-29T00:31:27.622Z,21.30
2017-05-29T00:33:56.676Z,21.30
2017-05-29T00:36:25.752Z,21.30
2017-05-29T00:38:54.826Z,21.30
2017-05-29T00:41:23.887Z,21.30
2017-05-29T00:43:52.966Z,21.30
2017-05-29T00:46:22.040Z,21.20
2017-05-29T00:48:51.093Z,21.20
2017-05-29T00:51:20.159Z,21.10
2017-05-29T00:53:49.210Z,21.10
2017-05-29T00:56:18.283Z,21.10
2017-05-29T00:58:47.408Z,21.10
2017-05-29T01:01:16.461Z,21.10
2017-05-29T01:03:45.502Z,21.10
2017-05-29T01:06:14.605Z,21.10
2017-05-29T01:08:43.661Z,21.10
2017-05-29T01:11:12.722Z,21.10
2017-05-29T01:13:41.831Z,21.10
2017-05-29T01:16:10.913Z,21.10
2017-05-29T01:18:39.996Z,21.10
2017-05-29T01:21:09.071Z,21.20
2017-05-29T01:23:38.126Z,21.20
2017-05-29T01:26:07.182Z,21.20
2017-05-29T01:28:36.287Z,21.20
2017-05-29T01:31:05.351Z,21.30
2017-05-29T01:33:34.397Z,21.30
2017-05-29T01:36:03.474Z,21.30
2017-05-29T01:38:32.547Z,21.30
2017-05-29T01:41:01.602Z,21.30
2017-05-29T01:43:30.689Z,21.30
2017-05-29T01:45:59.763Z,21.20
2017-05-29T01:48:28.830Z,21.30
2017-05-29T01:50:57.914Z,21.30
2017-05-29T01:53:26.980Z,21.30
2017-05-29T01:55:56.027Z,21.30
2017-05-29T01:58:25.109Z,21.40
2017-05-29T02:00:54.177Z,21.30
2017-05-29T02:03:23.226Z,21.30
2017-05-29T02:05:52.307Z,21.30
2017-05-29T02:08:21.387Z,21.30
2017-05-29T02:10:50.437Z,21.30
2017-05-29T02:13:19.531Z,21.30
2017-05-29T02:15:48.604Z,21.30
2017-05-29T02:18:17.677Z,21.20
2017-05-29T02:20:46.760Z,21.30
2017-05-29T02:23:15.818Z,21.30
2017-05-29T02:25:44.865Z,21.30
2017-05-29T02:28:14.255Z,21.30
2017-05-29T02:30:43.311Z,21.40
2017-05-29T02:33:12.382Z,21.40
2017-05-29T02:35:41.468Z,21.40
2017-05-29T02:38:10.522Z,21.30
2017-05-29T02:40:39.587Z,21.30
2017-05-29T02:43:08.658Z,21.30
2017-05-29T02:45:37.718Z,21.20
2017-05-29T02:48:06.783Z,21.20
2017-05-29T02:50:35.877Z,21.20
2017-05-29T02:53:04.953Z,21.20
2017-05-29T02:55:34.026Z,21.20
2017-05-29T02:58:03.102Z,21.20
2017-05-29T03:00:32.171Z,21.20
2017-05-29T03:03:01.246Z,21.30
2017-05-29T03:05:30.597Z,21.30
2017-05-29T03:07:59.650Z,21.30
2017-05-29T03:10:28.712Z,21.30
2017-05-29T03:12:57.819Z,21.30
2017-05-29T03:15:26.080Z,21.30
2017-05-29T03:17:55.145Z,21.30
2017-05-29T03:20:24.234Z,21.30
2017-05-29T03:22:53.288Z,21.30
2017-05-29T03:25:22.348Z,21.30
2017-05-29T03:27:51.407Z,21.30
2017-05-29T03:30:20.464Z,21.30
2017-05-29T03:32:49.524Z,21.30
2017-05-29T03:35:18.600Z,21.20
2017-05-29T03:37:47.649Z,21.20
2017-05-29T03:40:16.707Z,21.20
2017-05-29T03:42:45.769Z,21.20
2017-05-29T03:45:14.831Z,21.10
2017-05-29T03:47:43.890Z,21.10
2017-05-29T03:50:12.987Z,21.10
2017-05-29T03:52:42.050Z,21.10
2017-05-29T03:55:11.104Z,21.10
2017-05-29T03:57:40.175Z,21.10
2017-05-29T04:00:09.227Z,21.20
2017-05-29T04:02:38.375Z,21.20
2017-05-29T04:05:07.433Z,21.30
2017-05-29T04:07:36.495Z,21.30
2017-05-29T04:10:05.542Z,21.40
2017-05-29T04:12:35.006Z,21.40
2017-05-29T04:15:04.057Z,21.50
2017-05-29T04:17:33.105Z,21.60
2017-05-29T04:20:02.160Z,21.70
2017-05-29T04:22:31.243Z,21.80
2017-05-29T04:25:00.285Z,21.80
2017-05-29T04:27:29.435Z,21.80
2017-05-29T04:29:58.500Z,21.90
2017-05-29T04:32:31.670Z,22.00
2017-05-29T04:35:00.687Z,22.00
2017-05-29T04:37:29.746Z,22.10
2017-05-29T04:39:58.817Z,22.10
2017-05-29T04:42:28.174Z,22.20
2017-05-29T04:44:57.239Z,22.20
2017-05-29T04:47:26.319Z,22.20
2017-05-29T04:49:55.435Z,22.30
2017-05-29T04:52:24.478Z,22.30
2017-05-29T04:54:53.536Z,22.30
2017-05-29T04:57:22.614Z,22.40
2017-05-29T04:59:51.649Z,22.40
2017-05-29T05:02:20.715Z,22.50
2017-05-29T05:04:49.784Z,22.50
2017-05-29T05:07:19.726Z,22.50
2017-05-29T05:09:49.573Z,22.60
2017-05-29T05:12:18.632Z,22.70
2017-05-29T05:14:47.811Z,22.70
2017-05-29T05:17:16.892Z,22.80
2017-05-29T05:19:45.947Z,22.80
2017-05-29T05:22:15.012Z,22.90
2017-05-29T05:24:44.081Z,22.90
2017-05-29T05:27:13.129Z,23.00
2017-05-29T05:29:42.179Z,23.00
2017-05-29T05:32:11.306Z,23.00
2017-05-29T05:34:40.344Z,23.00
2017-05-29T05:37:09.394Z,23.10
2017-05-29T05:39:38.533Z,23.30
2017-05-29T05:42:07.525Z,23.40
2017-05-29T05:44:36.566Z,23.60
2017-05-29T05:47:05.643Z,23.70
2017-05-29T05:49:34.699Z,23.80
2017-05-29T05:52:03.740Z,23.90
2017-05-29T05:54:32.806Z,23.90
2017-05-29T05:57:01.849Z,24.00
2017-05-29T05:59:30.894Z,24.00
2017-05-29T06:01:59.958Z,24.10
2017-05-29T06:04:29.002Z,24.10
2017-05-29T06:06:58.116Z,24.10
2017-05-29T06:09:28.898Z,24.10
2017-05-29T06:11:57.987Z,24.20
2017-05-29T06:14:27.041Z,24.20
2017-05-29T06:16:56.124Z,24.20
2017-05-29T06:19:25.185Z,24.30
2017-05-29T06:21:54.229Z,24.40
2017-05-29T06:24:23.326Z,24.40
2017-05-29T06:26:51.620Z,24.40
2017-05-29T06:29:20.649Z,24.50
2017-05-29T06:31:49.721Z,24.60
2017-05-29T06:34:18.763Z,24.50
2017-05-29T06:36:47.827Z,24.60
2017-05-29T06:39:16.887Z,24.60
2017-05-29T06:41:45.965Z,24.60
2017-05-29T06:44:14.249Z,24.60
2017-05-29T06:46:43.316Z,24.70
2017-05-29T06:49:12.431Z,24.70
2017-05-29T06:51:41.492Z,24.70
2017-05-29T06:54:10.567Z,24.80
2017-05-29T06:56:39.600Z,24.80
2017-05-29T06:59:07.899Z,24.80
2017-05-29T07:01:36.981Z,24.90
2017-05-29T07:04:06.079Z,24.80
2017-05-29T07:06:35.127Z,24.90
2017-05-29T07:09:04.202Z,25.00
2017-05-29T07:11:33.280Z,25.00
2017-05-29T07:14:02.331Z,25.00
2017-05-29T07:16:31.412Z,25.10
2017-05-29T07:19:00.509Z,25.20
2017-05-29T07:21:29.533Z,25.30
2017-05-29T07:23:58.600Z,25.40
2017-05-29T07:26:27.633Z,25.40
2017-05-29T07:28:56.699Z,25.50
2017-05-29T07:31:25.776Z,25.60
2017-05-29T07:33:54.814Z,25.60
2017-05-29T07:36:23.874Z,25.60
2017-05-29T07:38:52.927Z,25.70
2017-05-29T07:41:21.975Z,25.80
2017-05-29T07:43:51.026Z,25.90
2017-05-29T07:46:19.317Z,25.90
2017-05-29T07:48:48.365Z,26.10
2017-05-29T07:51:17.431Z,26.10
2017-05-29T07:53:46.502Z,26.20
2017-05-29T07:56:15.547Z,26.20
2017-05-29T07:58:44.603Z,26.30
2017-05-29T08:01:13.681Z,26.40
2017-05-29T08:03:42.728Z,26.50
2017-05-29T08:06:11.783Z,26.60
2017-05-29T08:08:40.868Z,26.70
2017-05-29T08:11:09.941Z,26.80
2017-05-29T08:13:38.999Z,26.80
2017-05-29T08:16:08.078Z,26.90
2017-05-29T08:18:37.875Z,27.00
2017-05-29T08:21:06.948Z,27.20
2017-05-29T08:23:36.405Z,27.30
2017-05-29T08:26:05.444Z,27.50
2017-05-29T08:28:34.482Z,27.50
2017-05-29T08:31:03.552Z,27.60
2017-05-29T08:33:32.595Z,27.60
2017-05-29T08:36:01.634Z,27.60
2017-05-29T08:38:30.713Z,27.50
2017-05-29T08:40:59.778Z,27.40
2017-05-29T08:43:30.518Z,27.40
2017-05-29T08:45:59.624Z,27.30
2017-05-29T08:48:28.662Z,27.40
2017-05-29T08:50:57.747Z,27.40
2017-05-29T08:53:26.799Z,27.50
2017-05-29T08:55:55.842Z,27.50
2017-05-29T08:58:24.976Z,27.50
2017-05-29T09:00:53.945Z,27.60
2017-05-29T09:03:22.999Z,27.60
2017-05-29T09:05:52.069Z,27.90
2017-05-29T09:08:21.145Z,27.90
2017-05-29T09:10:50.199Z,28.00
2017-05-29T09:13:19.262Z,28.00
2017-05-29T09:15:48.310Z,28.00
2017-05-29T09:18:17.412Z,28.10
2017-05-29T09:20:45.801Z,28.10
2017-05-29T09:23:14.858Z,28.20
2017-05-29T09:25:43.888Z,28.30
2017-05-29T09:28:12.953Z,28.40
2017-05-29T09:30:42.033Z,28.40
2017-05-29T09:33:11.083Z,28.50
2017-05-29T09:35:40.159Z,28.60
2017-05-29T09:38:09.216Z,28.60
2017-05-29T09:40:38.253Z,28.70
2017-05-29T09:43:07.317Z,28.70
2017-05-29T09:45:36.363Z,28.70
2017-05-29T09:48:05.402Z,28.90
2017-05-29T09:50:34.480Z,28.90
2017-05-29T09:53:03.527Z,28.80
2017-05-29T09:55:32.583Z,28.90
2017-05-29T09:58:01.642Z,28.90
2017-05-29T10:00:30.681Z,29.00
2017-05-29T10:02:59.740Z,29.20
2017-05-29T10:05:28.794Z,29.20
2017-05-29T10:07:57.855Z,29.00
2017-05-29T10:10:26.914Z,29.10
2017-05-29T10:12:56.694Z,29.10
2017-05-29T10:15:25.739Z,29.20
2017-05-29T10:17:54.776Z,29.30
2017-05-29T10:20:23.845Z,29.40
2017-05-29T10:22:52.944Z,29.60
2017-05-29T10:25:21.985Z,29.60
2017-05-29T10:27:51.053Z,29.50
2017-05-29T10:30:20.106Z,29.50
2017-05-29T10:32:49.193Z,29.50
2017-05-29T10:35:18.248Z,29.60
2017-05-29T10:37:47.289Z,29.60
2017-05-29T10:40:16.336Z,29.70
2017-05-29T10:42:45.407Z,29.70
2017-05-29T10:45:14.459Z,29.80
2017-05-29T10:47:43.515Z,29.80
2017-05-29T10:50:12.591Z,30.00
2017-05-29T10:52:41.641Z,30.10
2017-05-29T10:55:10.701Z,30.20
2017-05-29T10:57:39.753Z,30.10
2017-05-29T11:00:08.813Z,30.20
2017-05-29T11:02:37.883Z,30.20
2017-05-29T11:05:06.948Z,30.10
2017-05-29T11:07:36.015Z,30.30
2017-05-29T11:10:05.069Z,30.30
2017-05-29T11:12:34.154Z,30.20
2017-05-29T11:15:03.225Z,30.30
2017-05-29T11:17:32.273Z,30.40
2017-05-29T11:20:01.339Z,30.40
2017-05-29T11:22:30.391Z,30.40
2017-05-29T11:24:59.444Z,30.50
2017-05-29T11:27:28.511Z,30.40
2017-05-29T11:29:57.558Z,30.60
2017-05-29T11:32:26.621Z,30.50
2017-05-29T11:34:55.687Z,30.40
2017-05-29T11:37:25.918Z,30.60
2017-05-29T11:39:54.989Z,30.70
2017-05-29T11:42:24.032Z,30.70
2017-05-29T11:44:53.091Z,30.70
2017-05-29T11:47:23.080Z,30.60
2017-05-29T11:49:52.169Z,30.50
2017-05-29T11:52:21.235Z,30.70
2017-05-29T11:54:50.295Z,30.80
2017-05-29T11:57:19.329Z,30.90
2017-05-29T11:59:48.433Z,30.90
2017-05-29T12:02:18.513Z,31.10
2017-05-29T12:04:47.595Z,30.90
2017-05-29T12:07:16.668Z,30.90
2017-05-29T12:09:45.718Z,31.00
2017-05-29T12:12:14.774Z,31.00
2017-05-29T12:14:43.823Z,30.90
2017-05-29T12:17:12.888Z,30.90
2017-05-29T12:19:41.940Z,30.80
2017-05-29T12:22:10.995Z,30.90
2017-05-29T12:24:40.067Z,31.00
2017-05-29T12:27:09.116Z,31.10
2017-05-29T12:29:38.169Z,31.10
2017-05-29T12:32:07.221Z,31.00
2017-05-29T12:34:36.258Z,31.20
2017-05-29T12:37:05.329Z,31.10
2017-05-29T12:39:34.394Z,31.30
2017-05-29T12:42:03.451Z,31.30
2017-05-29T12:44:32.506Z,31.40
2017-05-29T12:47:01.580Z,31.60
2017-05-29T12:49:30.651Z,31.80
2017-05-29T12:51:59.715Z,32.00
2017-05-29T12:54:28.788Z,32.20
2017-05-29T12:56:57.820Z,32.10
2017-05-29T12:59:26.877Z,32.00
2017-05-29T13:01:55.933Z,32.10
2017-05-29T13:04:25.446Z,32.10
2017-05-29T13:06:54.499Z,32.00
2017-05-29T13:09:23.581Z,31.90
2017-05-29T13:11:51.868Z,31.90
2017-05-29T13:14:20.921Z,32.10
2017-05-29T13:16:50.015Z,32.30
2017-05-29T13:19:19.029Z,32.30
2017-05-29T13:21:48.070Z,32.30
2017-05-29T13:24:17.143Z,32.40
2017-05-29T13:26:46.192Z,32.40
2017-05-29T13:29:15.245Z,32.40
2017-05-29T13:31:44.312Z,32.40
2017-05-29T13:34:13.376Z,32.40
2017-05-29T13:36:42.418Z,32.50
2017-05-29T13:39:11.473Z,32.20
2017-05-29T13:41:40.549Z,32.10
2017-05-29T13:44:09.633Z,32.30
2017-05-29T13:46:38.671Z,32.30
2017-05-29T13:49:07.732Z,32.30
2017-05-29T13:51:36.786Z,32.30
2017-05-29T13:54:05.857Z,32.50
2017-05-29T13:56:34.906Z,32.40
2017-05-29T13:59:03.983Z,32.40
2017-05-29T14:01:33.044Z,32.30
2017-05-29T14:04:02.318Z,32.30
2017-05-29T14:06:31.375Z,32.40
2017-05-29T14:09:00.442Z,32.60
2017-05-29T14:11:29.495Z,32.70
2017-05-29T14:13:58.534Z,32.80
2017-05-29T14:16:27.672Z,32.90
2017-05-29T14:18:56.769Z,32.90
2017-05-29T14:21:25.829Z,32.90
2017-05-29T14:23:54.889Z,33.10
2017-05-29T14:26:23.944Z,33.10
2017-05-29T14:28:52.986Z,33.10
2017-05-29T14:31:22.040Z,32.90
2017-05-29T14:33:51.099Z,32.80
2017-05-29T14:36:20.160Z,32.60
2017-05-29T14:38:48.462Z,32.50
2017-05-29T14:41:17.527Z,33.00
2017-05-29T14:43:46.583Z,33.20
2017-05-29T14:46:15.668Z,33.20
2017-05-29T14:48:44.744Z,33.20
2017-05-29T14:51:13.791Z,33.10
2017-05-29T14:53:42.938Z,33.20
2017-05-29T14:56:12.000Z,33.30
2017-05-29T14:58:41.161Z,33.20
2017-05-29T15:01:10.245Z,33.30
2017-05-29T15:03:39.287Z,33.30
2017-05-29T15:06:08.360Z,33.20
2017-05-29T15:08:37.421Z,33.10
2017-05-29T15:11:06.477Z,33.20
2017-05-29T15:13:35.523Z,33.30
2017-05-29T15:16:04.584Z,33.40
2017-05-29T15:18:33.675Z,33.50
2017-05-29T15:21:02.717Z,33.70
2017-05-29T15:23:32.167Z,33.90
2017-05-29T15:26:01.222Z,33.80
2017-05-29T15:28:30.257Z,33.90
2017-05-29T15:30:59.475Z,33.80
2017-05-29T15:33:28.499Z,33.70
2017-05-29T15:35:57.537Z,33.60
2017-05-29T15:38:26.686Z,33.60
2017-05-29T15:40:55.728Z,33.80
2017-05-29T15:43:24.829Z,34.00
2017-05-29T15:45:53.912Z,34.20
2017-05-29T15:48:22.943Z,34.10
2017-05-29T15:50:51.990Z,34.10
2017-05-29T15:53:21.064Z,34.20
2017-05-29T15:55:50.098Z,34.20
2017-05-29T15:58:19.173Z,34.30
2017-05-29T16:00:48.293Z,34.40
2017-05-29T16:03:17.429Z,34.40
2017-05-29T16:05:46.489Z,34.40
2017-05-29T16:08:15.666Z,34.40
2017-05-29T16:10:44.723Z,34.20
2017-05-29T16:13:13.766Z,34.00
2017-05-29T16:15:42.065Z,34.00
2017-05-29T16:18:11.095Z,33.90
2017-05-29T16:20:40.141Z,34.10
2017-05-29T16:23:09.212Z,34.00
2017-05-29T16:25:38.251Z,33.60
2017-05-29T16:28:07.323Z,33.20
2017-05-29T16:30:36.377Z,33.10
2017-05-29T16:33:05.423Z,33.20
2017-05-29T16:35:34.478Z,33.30
2017-05-29T16:38:03.548Z,33.50
2017-05-29T16:40:32.600Z,33.70
2017-05-29T16:43:01.642Z,33.90
2017-05-29T16:45:30.728Z,34.10
2017-05-29T16:47:59.828Z,34.10
2017-05-29T16:50:28.862Z,34.10
2017-05-29T16:52:58.665Z,34.30
2017-05-29T16:55:27.804Z,34.10
2017-05-29T16:57:56.863Z,34.10
2017-05-29T17:00:25.938Z,34.00
2017-05-29T17:02:55.007Z,34.00
2017-05-29T17:05:24.093Z,33.90
2017-05-29T17:07:53.143Z,33.60
2017-05-29T17:10:22.212Z,33.30
2017-05-29T17:12:51.278Z,32.90
2017-05-29T17:15:20.334Z,32.60
2017-05-29T17:17:49.402Z,32.30
2017-05-29T17:20:18.452Z,32.00
2017-05-29T17:22:47.530Z,31.80
2017-05-29T17:25:16.595Z,31.70
2017-05-29T17:27:45.626Z,31.40
2017-05-29T17:30:16.562Z,31.30
2017-05-29T17:32:45.651Z,31.10
2017-05-29T17:35:14.724Z,31.00
2017-05-29T17:37:43.778Z,30.80
2017-05-29T17:40:12.880Z,30.60
2017-05-29T17:42:41.955Z,30.50
2017-05-29T17:45:11.032Z,30.40
2017-05-29T17:47:40.100Z,30.40
2017-05-29T17:50:09.151Z,30.30
2017-05-29T17:52:38.819Z,30.20
2017-05-29T17:55:07.884Z,30.10
2017-05-29T17:57:36.944Z,30.00
2017-05-29T18:00:07.369Z,29.90
2017-05-29T18:02:35.650Z,29.80
2017-05-29T18:05:04.728Z,29.70
2017-05-29T18:07:33.794Z,29.60
2017-05-29T18:10:02.856Z,29.60
2017-05-29T18:12:32.595Z,29.50
2017-05-29T18:15:01.636Z,29.50
2017-05-29T18:17:30.706Z,29.50
2017-05-29T18:20:00.001Z,29.50
2017-05-29T18:22:29.354Z,29.50
2017-05-29T18:24:58.511Z,29.40
2017-05-29T18:27:27.569Z,29.40
2017-05-29T18:29:56.751Z,29.20
2017-05-29T18:32:25.910Z,29.10
2017-05-29T18:34:55.234Z,28.90
2017-05-29T18:37:24.570Z,28.60
2017-05-29T18:39:53.658Z,28.40
2017-05-29T18:42:22.730Z,28.30
2017-05-29T18:44:51.940Z,28.30
2017-05-29T18:47:21.237Z,28.10
2017-05-29T18:49:50.402Z,28.00
2017-05-29T18:52:19.783Z,27.90
2017-05-29T18:54:49.375Z,27.80
2017-05-29T18:57:18.898Z,27.70
2017-05-29T18:59:48.499Z,27.60
2017-05-29T19:02:18.336Z,27.50
2017-05-29T19:04:47.994Z,27.40
2017-05-29T19:07:17.865Z,27.50
2017-05-29T19:09:47.771Z,27.40
2017-05-29T19:12:17.628Z,27.40
2017-05-29T19:14:47.709Z,27.40
2017-05-29T19:17:17.643Z,27.40
2017-05-29T19:19:47.657Z,27.40
2017-05-29T19:22:17.757Z,27.40
2017-05-29T19:24:47.990Z,27.40
2017-05-29T19:27:18.737Z,27.40
2017-05-29T19:29:50.207Z,27.40
2017-05-29T19:32:19.597Z,27.40
2017-05-29T19:34:49.441Z,27.40
2017-05-29T19:37:19.130Z,27.40
2017-05-29T19:39:48.487Z,27.30
2017-05-29T19:42:17.594Z,27.30
2017-05-29T19:44:46.686Z,27.20
2017-05-29T19:47:15.852Z,27.20
2017-05-29T19:49:44.983Z,27.10
2017-05-29T19:52:14.190Z,27.00
2017-05-29T19:54:43.310Z,26.90
2017-05-29T19:57:12.579Z,26.80
2017-05-29T19:59:42.727Z,26.90
2017-05-29T20:02:11.921Z,26.70
2017-05-29T20:04:41.653Z,26.80
2017-05-29T20:07:11.995Z,26.70
2017-05-29T20:09:42.172Z,26.70
2017-05-29T20:12:14.065Z,26.60
2017-05-29T20:14:43.128Z,26.60
2017-05-29T20:17:12.248Z,26.50
2017-05-29T20:19:41.279Z,26.40
2017-05-29T20:22:10.347Z,26.30
2017-05-29T20:24:39.401Z,26.30
2017-05-29T20:27:08.497Z,26.20
2017-05-29T20:29:37.557Z,26.20
2017-05-29T20:32:06.679Z,26.10
2017-05-29T20:34:35.848Z,26.10
2017-05-29T20:37:04.908Z,26.00
2017-05-29T20:39:34.000Z,26.00
2017-05-29T20:42:03.089Z,26.00
2017-05-29T20:44:32.159Z,25.90
2017-05-29T20:47:01.321Z,25.90
2017-05-29T20:49:30.382Z,25.90
2017-05-29T20:51:59.493Z,25.90
2017-05-29T20:54:28.571Z,25.90
2017-05-29T20:56:57.646Z,25.80
2017-05-29T20:59:26.724Z,25.80
2017-05-29T21:01:55.798Z,25.70
2017-05-29T21:04:24.870Z,25.70
2017-05-29T21:06:53.921Z,25.70
2017-05-29T21:09:23.008Z,25.60
2017-05-29T21:11:52.095Z,25.60
2017-05-29T21:14:21.165Z,25.60
2017-05-29T21:16:50.252Z,25.60
2017-05-29T21:19:19.307Z,25.60
2017-05-29T21:21:48.359Z,25.60
2017-05-29T21:24:17.427Z,25.50
2017-05-29T21:26:46.495Z,25.50
2017-05-29T21:29:15.603Z,25.40
2017-05-29T21:31:44.709Z,25.40
2017-05-29T21:34:14.426Z,25.30
2017-05-29T21:36:43.551Z,25.30
2017-05-29T21:39:13.384Z,25.20
2017-05-29T21:41:42.440Z,25.10
2017-05-29T21:44:11.558Z,25.10
2017-05-29T21:46:40.859Z,25.10
2017-05-29T21:49:10.088Z,25.00
2017-05-29T21:51:39.343Z,24.90
2017-05-29T21:54:08.430Z,24.90
2017-05-29T21:56:37.544Z,24.80
2017-05-29T21:59:06.611Z,24.70
2017-05-29T22:01:35.777Z,24.70
2017-05-29T22:04:04.813Z,24.70
2017-05-29T22:06:33.876Z,24.60
2017-05-29T22:09:02.945Z,24.60
2017-05-29T22:11:31.993Z,24.50
2017-05-29T22:14:01.066Z,24.50
2017-05-29T22:16:30.163Z,24.40
2017-05-29T22:18:59.244Z,24.40
2017-05-29T22:21:28.353Z,24.30
2017-05-29T22:23:57.410Z,24.20
2017-05-29T22:26:26.494Z,24.20
2017-05-29T22:28:55.557Z,24.10
2017-05-29T22:31:24.642Z,24.10
2017-05-29T22:33:53.729Z,24.00
2017-05-29T22:36:22.824Z,24.00
2017-05-29T22:38:51.913Z,23.90
2017-05-29T22:41:20.987Z,23.90
2017-05-29T22:43:50.059Z,23.80
2017-05-29T22:46:19.140Z,23.70
2017-05-29T22:48:48.206Z,23.60
2017-05-29T22:51:16.523Z,23.60
2017-05-29T22:53:45.612Z,23.50
2017-05-29T22:56:14.689Z,23.40
2017-05-29T22:58:43.737Z,23.40
2017-05-29T23:01:12.828Z,23.40
2017-05-29T23:03:41.895Z,23.40
2017-05-29T23:06:10.960Z,23.30
2017-05-29T23:08:40.109Z,23.30
2017-05-29T23:11:09.211Z,23.20
2017-05-29T23:13:38.301Z,23.20
2017-05-29T23:16:07.367Z,23.20
2017-05-29T23:18:36.420Z,23.20
2017-05-29T23:21:05.503Z,23.10
2017-05-29T23:23:34.595Z,23.10
2017-05-29T23:26:03.699Z,23.10
2017-05-29T23:28:32.821Z,23.10
2017-05-29T23:31:01.870Z,23.10
2017-05-29T23:33:30.997Z,23.00
2017-05-29T23:36:00.208Z,23.00
2017-05-29T23:38:29.287Z,23.00
2017-05-29T23:40:58.382Z,23.00
2017-05-29T23:43:27.914Z,22.90
2017-05-29T23:45:56.970Z,22.90
2017-05-29T23:48:26.046Z,22.90
2017-05-29T23:50:55.123Z,22.90
2017-05-29T23:53:24.199Z,22.90
2017-05-29T23:55:53.247Z,22.90
2017-05-29T23:58:22.327Z,22.90
